Lake Ronkonkoma Heights, New York
Current Conditions -  °F | °C
As of 3:56 PM on Thursday 27 Nov 2014 (Local Time) from KISP Reporting Station
Overcast Overcast  
Wind Chill: 33°   Ceiling: 1800
Heat Index: 38°   Visibility: 10mi
Dew Point: 30°   Wind: 7mph
Humidity: 73%   Direction: 350°N
Pressure: 29.97"   Gusts: NA
Location:  40.8149°N, 73.1229°W
Report Text: KISP 272056Z 35006KT 10SM FEW011 OVC018 03/M01 A2997 RMK AO2 RAE17 SLP148 P0000 60000 T00331011 53006
Loading
Personal Weather Stations






























Interactive Weather Map New forecast layout! Learn more

10-Day Weather Forecast

Advertisements
Track Severe Weather on mobile